createdAt,value
2019-03-16T00:00:24.163Z,0
2019-03-16T00:01:24.942Z,0
2019-03-16T00:02:25.562Z,0
2019-03-16T00:03:26.185Z,0
2019-03-16T00:04:26.761Z,0
2019-03-16T00:05:27.381Z,0
2019-03-16T00:06:27.953Z,0
2019-03-16T00:07:33.156Z,0
2019-03-16T00:08:30.093Z,0
2019-03-16T00:09:30.668Z,0
2019-03-16T00:10:31.283Z,0
2019-03-16T00:11:31.858Z,0
2019-03-16T00:12:32.479Z,0
2019-03-16T00:13:33.051Z,0
2019-03-16T00:14:33.672Z,0
2019-03-16T00:15:34.247Z,0
2019-03-16T00:16:34.823Z,0
2019-03-16T00:17:35.444Z,0
2019-03-16T00:18:36.066Z,0
2019-03-16T00:19:36.644Z,0
2019-03-16T00:20:37.257Z,0
2019-03-16T00:21:37.828Z,0
2019-03-16T00:22:38.452Z,0
2019-03-16T00:23:39.025Z,0
2019-03-16T00:24:39.597Z,0
2019-03-16T00:25:40.172Z,0
2019-03-16T00:26:40.743Z,0
2019-03-16T00:27:41.318Z,0
2019-03-16T00:28:41.899Z,0
2019-03-16T00:29:42.612Z,0
2019-03-16T00:30:43.434Z,0
2019-03-16T00:31:44.056Z,0
2019-03-16T00:32:44.709Z,0
2019-03-16T00:33:45.301Z,0
2019-03-16T00:34:45.979Z,0
2019-03-16T00:35:46.620Z,0
2019-03-16T00:36:47.192Z,0
2019-03-16T00:37:47.766Z,0
2019-03-16T00:38:48.338Z,0
2019-03-16T00:39:48.912Z,0
2019-03-16T00:40:49.482Z,0
2019-03-16T00:41:50.054Z,0
2019-03-16T00:42:50.627Z,0
2019-03-16T00:43:51.250Z,0
2019-03-16T00:44:51.827Z,0
2019-03-16T00:45:52.447Z,0
2019-03-16T00:46:53.021Z,0
2019-03-16T00:47:53.594Z,0
2019-03-16T00:48:54.169Z,0
2019-03-16T00:49:54.791Z,0
2019-03-16T00:50:55.414Z,0
2019-03-16T00:51:56.036Z,0
2019-03-16T00:52:56.663Z,0
2019-03-16T00:53:57.233Z,0
2019-03-16T00:54:57.806Z,0
2019-03-16T00:55:58.378Z,0
2019-03-16T00:56:58.996Z,0
2019-03-16T00:57:59.618Z,0
2019-03-16T00:59:00.339Z,0
2019-03-16T01:00:00.967Z,0
2019-03-16T01:01:01.534Z,0
2019-03-16T01:02:02.108Z,0
2019-03-16T01:03:02.683Z,0
2019-03-16T01:04:03.256Z,0
2019-03-16T01:05:04.023Z,0
2019-03-16T01:06:04.598Z,0
2019-03-16T01:07:05.169Z,0
2019-03-16T01:08:05.857Z,0
2019-03-16T01:09:06.428Z,0
2019-03-16T01:10:07.050Z,0
2019-03-16T01:11:07.674Z,0
2019-03-16T01:12:08.202Z,0
2019-03-16T01:13:08.824Z,0
2019-03-16T01:14:09.395Z,0
2019-03-16T01:15:09.969Z,0
2019-03-16T01:16:10.539Z,0
2019-03-16T01:17:11.161Z,0
2019-03-16T01:18:11.734Z,0
2019-03-16T01:19:12.314Z,0
2019-03-16T01:20:12.926Z,0
2019-03-16T01:21:13.497Z,0
2019-03-16T01:22:14.069Z,0
2019-03-16T01:23:17.480Z,0
2019-03-16T01:24:16.266Z,0
2019-03-16T01:25:16.882Z,0
2019-03-16T01:26:17.504Z,0
2019-03-16T01:27:18.121Z,0
2019-03-16T01:28:18.695Z,0
2019-03-16T01:29:19.269Z,0
2019-03-16T01:30:19.841Z,0
2019-03-16T01:31:20.469Z,0
2019-03-16T01:32:21.079Z,0
2019-03-16T01:33:21.702Z,0
2019-03-16T01:34:22.276Z,0
2019-03-16T01:35:22.900Z,0
2019-03-16T01:36:23.471Z,0
2019-03-16T01:37:24.043Z,0
2019-03-16T01:38:24.664Z,0
2019-03-16T01:39:25.239Z,0
2019-03-16T01:40:25.811Z,0
2019-03-16T01:41:26.386Z,0
2019-03-16T01:42:27.008Z,0
2019-03-16T01:43:27.583Z,0
2019-03-16T01:44:28.203Z,0
2019-03-16T01:45:28.777Z,0
2019-03-16T01:46:29.402Z,0
2019-03-16T01:47:29.974Z,0
2019-03-16T01:48:30.548Z,0
2019-03-16T01:49:31.169Z,0
2019-03-16T01:50:31.740Z,0
2019-03-16T01:51:32.361Z,0
2019-03-16T01:52:32.935Z,0
2019-03-16T01:53:33.509Z,0
2019-03-16T01:54:34.082Z,0
2019-03-16T01:55:34.656Z,0
2019-03-16T01:56:35.280Z,0
2019-03-16T01:57:35.851Z,0
2019-03-16T01:58:36.473Z,0
2019-03-16T01:59:37.047Z,0
2019-03-16T02:00:37.622Z,0
2019-03-16T02:01:38.194Z,0
2019-03-16T02:02:38.767Z,0
2019-03-16T02:03:39.339Z,0
2019-03-16T02:04:39.912Z,0
2019-03-16T02:05:40.485Z,0
2019-03-16T02:06:41.061Z,0
2019-03-16T02:07:41.695Z,0
2019-03-16T02:08:42.261Z,0
2019-03-16T02:09:42.879Z,0
2019-03-16T02:10:43.454Z,0
2019-03-16T02:11:44.078Z,0
2019-03-16T02:12:44.649Z,0
2019-03-16T02:13:45.271Z,0
2019-03-16T02:14:45.846Z,0
2019-03-16T02:15:46.420Z,0
2019-03-16T02:16:46.992Z,0
2019-03-16T02:17:47.565Z,0
2019-03-16T02:18:48.190Z,0
2019-03-16T02:19:48.810Z,0
2019-03-16T02:20:49.432Z,0
2019-03-16T02:21:50.136Z,0
2019-03-16T02:22:50.778Z,0
2019-03-16T02:23:51.349Z,0
2019-03-16T02:24:51.923Z,0
2019-03-16T02:25:52.546Z,0
2019-03-16T02:26:53.168Z,0
2019-03-16T02:27:53.742Z,0
2019-03-16T02:28:54.364Z,0
2019-03-16T02:29:54.987Z,0
2019-03-16T02:30:55.569Z,0
2019-03-16T02:31:56.183Z,0
2019-03-16T02:33:11.871Z,0
2019-03-16T02:33:58.360Z,0
2019-03-16T02:34:58.934Z,0
2019-03-16T02:35:59.510Z,0
2019-03-16T02:37:00.079Z,0
2019-03-16T02:38:00.653Z,0
2019-03-16T02:39:01.375Z,0
2019-03-16T02:40:01.964Z,0
2019-03-16T02:41:02.520Z,0
2019-03-16T02:42:03.143Z,0
2019-03-16T02:43:03.810Z,0
2019-03-16T02:44:04.431Z,0
2019-03-16T02:45:05.003Z,0
2019-03-16T02:46:05.575Z,0
2019-03-16T02:47:06.148Z,0
2019-03-16T02:48:06.771Z,0
2019-03-16T02:49:07.343Z,0
2019-03-16T02:50:07.919Z,0
2019-03-16T02:51:08.492Z,0
2019-03-16T02:52:09.064Z,0
2019-03-16T02:53:09.636Z,0
2019-03-16T02:54:10.261Z,0
2019-03-16T02:55:10.835Z,0
2019-03-16T02:56:11.658Z,0
2019-03-16T02:57:12.157Z,0
2019-03-16T02:58:12.730Z,0
2019-03-16T02:59:13.352Z,0
2019-03-16T03:00:13.940Z,0
2019-03-16T03:01:14.551Z,0
2019-03-16T03:02:15.122Z,0
2019-03-16T03:03:28.715Z,0
2019-03-16T03:04:17.261Z,0
2019-03-16T03:05:17.885Z,0
2019-03-16T03:06:18.459Z,0
2019-03-16T03:07:19.036Z,0
2019-03-16T03:08:19.608Z,0
2019-03-16T03:09:20.184Z,0
2019-03-16T03:10:20.751Z,0
2019-03-16T03:11:21.373Z,0
2019-03-16T03:12:21.946Z,0
2019-03-16T03:13:22.518Z,0
2019-03-16T03:14:23.105Z,0
2019-03-16T03:15:23.662Z,0
2019-03-16T03:16:24.294Z,0
2019-03-16T03:17:24.858Z,0
2019-03-16T03:18:25.489Z,0
2019-03-16T03:19:26.056Z,0
2019-03-16T03:20:26.627Z,0
2019-03-16T03:21:27.253Z,0
2019-03-16T03:22:27.869Z,0
2019-03-16T03:23:28.441Z,0
2019-03-16T03:24:29.016Z,0
2019-03-16T03:25:29.643Z,0
2019-03-16T03:26:30.265Z,0
2019-03-16T03:27:30.883Z,0
2019-03-16T03:28:31.469Z,0
2019-03-16T03:29:32.081Z,0
2019-03-16T03:30:32.702Z,0
2019-03-16T03:31:33.274Z,0
2019-03-16T03:32:33.847Z,0
2019-03-16T03:33:57.347Z,0
2019-03-16T03:34:35.990Z,0
2019-03-16T03:35:36.602Z,0
2019-03-16T03:36:37.174Z,0
2019-03-16T03:37:37.750Z,0
2019-03-16T03:38:38.485Z,0
2019-03-16T03:39:39.108Z,0
2019-03-16T03:40:39.681Z,0
2019-03-16T03:41:40.257Z,0
2019-03-16T03:42:40.875Z,0
2019-03-16T03:43:41.449Z,0
2019-03-16T03:44:42.071Z,0
2019-03-16T03:45:42.645Z,0
2019-03-16T03:46:43.217Z,0
2019-03-16T03:47:43.848Z,0
2019-03-16T03:48:44.414Z,0
2019-03-16T03:49:45.034Z,0
2019-03-16T03:50:45.609Z,0
2019-03-16T03:51:46.189Z,0
2019-03-16T03:52:46.804Z,0
2019-03-16T03:53:47.377Z,0
2019-03-16T03:54:47.948Z,0
2019-03-16T03:55:48.522Z,0
2019-03-16T03:56:49.106Z,0
2019-03-16T03:57:49.670Z,0
2019-03-16T03:58:50.242Z,0
2019-03-16T03:59:50.813Z,0
2019-03-16T04:00:51.435Z,0
2019-03-16T04:01:52.055Z,0
2019-03-16T04:02:52.634Z,0
2019-03-16T04:03:53.215Z,0
2019-03-16T04:04:53.823Z,0
2019-03-16T04:05:54.614Z,0
2019-03-16T04:06:55.171Z,0
2019-03-16T04:07:55.800Z,0
2019-03-16T04:08:56.431Z,0
2019-03-16T04:09:56.979Z,0
2019-03-16T04:10:57.603Z,0
2019-03-16T04:11:58.216Z,0
2019-03-16T04:12:58.787Z,0
2019-03-16T04:13:59.360Z,0
2019-03-16T04:14:59.975Z,0
2019-03-16T04:16:00.556Z,0
2019-03-16T04:17:01.122Z,0
2019-03-16T04:18:01.741Z,0
2019-03-16T04:19:02.312Z,0
2019-03-16T04:20:02.887Z,0
2019-03-16T04:21:03.552Z,0
2019-03-16T04:22:04.215Z,0
2019-03-16T04:23:04.839Z,0
2019-03-16T04:24:05.474Z,0
2019-03-16T04:25:06.035Z,0
2019-03-16T04:26:06.602Z,0
2019-03-16T04:27:15.819Z,0
2019-03-16T04:28:08.745Z,0
2019-03-16T04:29:09.321Z,0
2019-03-16T04:30:09.951Z,0
2019-03-16T04:31:10.553Z,0
2019-03-16T04:32:11.124Z,0
2019-03-16T04:33:11.697Z,0
2019-03-16T04:34:12.313Z,0
2019-03-16T04:35:12.885Z,0
2019-03-16T04:36:13.457Z,0
2019-03-16T04:37:14.031Z,0
2019-03-16T04:38:14.606Z,0
2019-03-16T04:39:15.330Z,0
2019-03-16T04:40:15.985Z,0
2019-03-16T04:41:16.560Z,0
2019-03-16T04:42:17.183Z,0
2019-03-16T04:43:17.754Z,0
2019-03-16T04:44:18.375Z,0
2019-03-16T04:45:18.952Z,0
2019-03-16T04:46:19.572Z,0
2019-03-16T04:47:20.144Z,0
2019-03-16T04:48:20.716Z,0
2019-03-16T04:49:21.330Z,0
2019-03-16T04:50:21.905Z,0
2019-03-16T04:51:22.475Z,0
2019-03-16T04:52:23.046Z,0
2019-03-16T04:53:23.644Z,0
2019-03-16T04:54:24.214Z,0
2019-03-16T04:55:24.836Z,0
2019-03-16T04:56:25.408Z,0
2019-03-16T04:57:25.986Z,0
2019-03-16T04:58:26.593Z,0
2019-03-16T04:59:27.165Z,0
2019-03-16T05:00:27.789Z,0
2019-03-16T05:01:28.411Z,0
2019-03-16T05:02:29.034Z,0
2019-03-16T05:03:29.609Z,0
2019-03-16T05:04:42.013Z,0
2019-03-16T05:05:31.795Z,0
2019-03-16T05:06:32.366Z,0
2019-03-16T05:07:32.942Z,0
2019-03-16T05:08:33.610Z,0
2019-03-16T05:09:34.184Z,0
2019-03-16T05:10:34.754Z,0
2019-03-16T05:11:35.327Z,0
2019-03-16T05:12:35.901Z,0
2019-03-16T05:13:36.474Z,0
2019-03-16T05:14:37.097Z,0
2019-03-16T05:15:37.668Z,0
2019-03-16T05:16:38.239Z,0
2019-03-16T05:17:38.863Z,0
2019-03-16T05:18:39.485Z,0
2019-03-16T05:19:40.057Z,0
2019-03-16T05:20:40.627Z,0
2019-03-16T05:21:41.250Z,0
2019-03-16T05:22:41.823Z,0
2019-03-16T05:23:42.444Z,0
2019-03-16T05:24:43.017Z,0
2019-03-16T05:25:43.589Z,0
2019-03-16T05:26:44.163Z,0
2019-03-16T05:27:44.734Z,0
2019-03-16T05:28:45.307Z,0
2019-03-16T05:29:45.878Z,0
2019-03-16T05:30:46.503Z,0
2019-03-16T05:31:47.074Z,0
2019-03-16T05:32:47.646Z,0
2019-03-16T05:33:48.227Z,0
2019-03-16T05:34:56.429Z,0
2019-03-16T05:35:50.362Z,0
2019-03-16T05:36:50.934Z,0
2019-03-16T05:37:51.553Z,0
2019-03-16T05:38:52.177Z,0
2019-03-16T05:39:52.749Z,0
2019-03-16T05:40:53.321Z,0
2019-03-16T05:41:53.934Z,0
2019-03-16T05:42:54.555Z,0
2019-03-16T05:43:55.127Z,0
2019-03-16T05:44:55.700Z,0
2019-03-16T05:45:56.273Z,0
2019-03-16T05:46:56.849Z,0
2019-03-16T05:47:57.419Z,0
2019-03-16T05:48:58.041Z,0
2019-03-16T05:49:58.613Z,0
2019-03-16T05:50:59.187Z,0
2019-03-16T05:51:59.755Z,0
2019-03-16T05:53:00.527Z,0
2019-03-16T05:54:01.104Z,0
2019-03-16T05:55:01.713Z,0
2019-03-16T05:56:02.286Z,0
2019-03-16T05:57:02.911Z,0
2019-03-16T05:58:03.483Z,0
2019-03-16T05:59:04.053Z,0
2019-03-16T06:00:04.626Z,0
2019-03-16T06:01:05.248Z,0
2019-03-16T06:02:05.870Z,0
2019-03-16T06:03:06.446Z,0
2019-03-16T06:04:07.013Z,0
2019-03-16T06:05:11.047Z,0
2019-03-16T06:06:09.204Z,0
2019-03-16T06:07:09.773Z,0
2019-03-16T06:08:10.350Z,0
2019-03-16T06:09:10.969Z,0
2019-03-16T06:10:11.590Z,0
2019-03-16T06:11:12.163Z,0
2019-03-16T06:12:12.735Z,0
2019-03-16T06:13:13.358Z,0
2019-03-16T06:14:13.931Z,0
2019-03-16T06:15:14.502Z,0
2019-03-16T06:16:15.076Z,0
2019-03-16T06:17:15.689Z,0
2019-03-16T06:18:16.276Z,0
2019-03-16T06:19:16.832Z,0
2019-03-16T06:20:17.461Z,0
2019-03-16T06:21:18.062Z,0
2019-03-16T06:22:18.634Z,0
2019-03-16T06:23:19.354Z,0
2019-03-16T06:24:19.927Z,0
2019-03-16T06:25:20.556Z,0
2019-03-16T06:26:21.118Z,0
2019-03-16T06:27:21.693Z,0
2019-03-16T06:28:22.317Z,0
2019-03-16T06:29:22.888Z,0
2019-03-16T06:30:23.509Z,0
2019-03-16T06:31:24.187Z,0
2019-03-16T06:32:24.797Z,0
2019-03-16T06:33:25.466Z,0
2019-03-16T06:34:26.091Z,0
2019-03-16T06:35:29.394Z,0
2019-03-16T06:36:28.327Z,0
2019-03-16T06:37:29.003Z,0
2019-03-16T06:38:29.573Z,0
2019-03-16T06:39:30.146Z,0
2019-03-16T06:40:30.714Z,0
2019-03-16T06:41:31.286Z,0
2019-03-16T06:42:31.859Z,0
2019-03-16T06:43:32.432Z,0
2019-03-16T06:44:33.003Z,0
2019-03-16T06:45:33.573Z,0
2019-03-16T06:46:34.196Z,0
2019-03-16T06:47:34.769Z,0
2019-03-16T06:48:35.433Z,0
2019-03-16T06:49:36.004Z,0
2019-03-16T06:50:36.576Z,0
2019-03-16T06:51:37.147Z,0
2019-03-16T06:52:37.720Z,0
2019-03-16T06:53:38.290Z,0
2019-03-16T06:54:38.913Z,0
2019-03-16T06:55:39.487Z,0
2019-03-16T06:56:40.066Z,0
2019-03-16T06:57:40.633Z,0
2019-03-16T06:58:41.256Z,0
2019-03-16T06:59:41.877Z,0
2019-03-16T07:00:42.448Z,0
2019-03-16T07:01:43.020Z,0
2019-03-16T07:02:43.591Z,0
2019-03-16T07:03:44.164Z,0
2019-03-16T07:04:44.734Z,0
2019-03-16T07:05:45.356Z,0
2019-03-16T07:06:45.930Z,0
2019-03-16T07:07:46.501Z,0
2019-03-16T07:08:47.076Z,0
2019-03-16T07:09:47.646Z,0
2019-03-16T07:10:48.219Z,0
2019-03-16T07:11:48.841Z,0
2019-03-16T07:12:49.416Z,0
2019-03-16T07:13:49.983Z,0
2019-03-16T07:14:50.555Z,0
2019-03-16T07:15:51.173Z,0
2019-03-16T07:17:01.506Z,0
2019-03-16T07:17:52.404Z,0
2019-03-16T07:18:58.817Z,0
2019-03-16T07:19:54.540Z,0
2019-03-16T07:20:55.112Z,0
2019-03-16T07:21:55.685Z,0
2019-03-16T07:22:56.257Z,0
2019-03-16T07:23:56.890Z,0
2019-03-16T07:24:57.497Z,0
2019-03-16T07:25:58.071Z,0
2019-03-16T07:26:58.693Z,0
2019-03-16T07:27:59.264Z,0
2019-03-16T07:28:59.845Z,0
2019-03-16T07:30:00.477Z,0
2019-03-16T07:31:01.080Z,0
2019-03-16T07:32:01.653Z,0
2019-03-16T07:33:02.226Z,0
2019-03-16T07:34:02.800Z,0
2019-03-16T07:35:03.421Z,0
2019-03-16T07:36:03.994Z,0
2019-03-16T07:37:04.565Z,0
2019-03-16T07:38:05.137Z,0
2019-03-16T07:39:05.754Z,0
2019-03-16T07:40:06.328Z,0
2019-03-16T07:41:06.901Z,0
2019-03-16T07:42:07.523Z,0
2019-03-16T07:43:08.100Z,0
2019-03-16T07:44:08.667Z,0
2019-03-16T07:45:09.297Z,0
2019-03-16T07:46:09.852Z,0
2019-03-16T07:47:10.479Z,0
2019-03-16T07:48:11.053Z,0
2019-03-16T07:49:11.619Z,0
2019-03-16T07:50:12.245Z,0
2019-03-16T07:51:12.908Z,0
2019-03-16T07:52:13.479Z,0
2019-03-16T07:53:14.100Z,0
2019-03-16T07:54:14.674Z,0
2019-03-16T07:55:15.245Z,0
2019-03-16T07:56:15.869Z,0
2019-03-16T07:57:16.443Z,0
2019-03-16T07:58:17.018Z,0
2019-03-16T07:59:17.586Z,0
2019-03-16T08:00:18.159Z,0
2019-03-16T08:01:18.732Z,0
2019-03-16T08:02:19.305Z,0
2019-03-16T08:03:19.877Z,0
2019-03-16T08:04:20.498Z,0
2019-03-16T08:05:21.221Z,0
2019-03-16T08:06:21.794Z,0
2019-03-16T08:07:22.418Z,0
2019-03-16T08:08:23.039Z,0
2019-03-16T08:09:23.756Z,0
2019-03-16T08:10:24.327Z,0
2019-03-16T08:11:24.942Z,0
2019-03-16T08:12:25.513Z,0
2019-03-16T08:13:26.085Z,0
2019-03-16T08:14:26.662Z,0
2019-03-16T08:15:28.232Z,0
2019-03-16T08:16:28.837Z,0
2019-03-16T08:17:29.412Z,0
2019-03-16T08:18:29.982Z,0
2019-03-16T08:19:30.556Z,0
2019-03-16T08:20:31.557Z,0
2019-03-16T08:21:32.294Z,0
2019-03-16T08:22:32.866Z,0
2019-03-16T08:23:33.443Z,0
2019-03-16T08:24:34.061Z,0
2019-03-16T08:25:34.632Z,0
2019-03-16T08:26:35.204Z,0
2019-03-16T08:27:35.775Z,0
2019-03-16T08:28:36.398Z,0
2019-03-16T08:29:36.976Z,0
2019-03-16T08:30:37.745Z,0
2019-03-16T08:31:38.319Z,0
2019-03-16T08:32:38.940Z,0
2019-03-16T08:33:39.517Z,0
2019-03-16T08:34:40.092Z,0
2019-03-16T08:35:40.665Z,0
2019-03-16T08:36:41.238Z,0
2019-03-16T08:37:41.862Z,0
2019-03-16T08:38:42.434Z,0
2019-03-16T08:39:43.006Z,0
2019-03-16T08:40:43.577Z,0
2019-03-16T08:41:44.149Z,0
2019-03-16T08:42:44.720Z,0
2019-03-16T08:43:45.292Z,0
2019-03-16T08:44:45.914Z,0
2019-03-16T08:45:46.490Z,0
2019-03-16T08:46:47.062Z,0
2019-03-16T08:47:47.636Z,0
2019-03-16T08:48:48.258Z,0
2019-03-16T08:49:48.830Z,0
2019-03-16T08:50:49.403Z,0
2019-03-16T08:51:49.973Z,0
2019-03-16T08:52:53.532Z,0
2019-03-16T08:53:51.210Z,0
2019-03-16T08:54:51.783Z,0
2019-03-16T08:55:52.405Z,0
2019-03-16T08:56:53.030Z,0
2019-03-16T08:58:05.374Z,0
2019-03-16T08:58:55.217Z,0
2019-03-16T08:59:55.789Z,0
2019-03-16T09:00:56.369Z,0
2019-03-16T09:01:56.983Z,0
2019-03-16T09:02:57.558Z,0
2019-03-16T09:03:58.129Z,0
2019-03-16T09:04:58.702Z,0
2019-03-16T09:05:59.275Z,0
2019-03-16T09:06:59.849Z,0
2019-03-16T09:08:00.421Z,0
2019-03-16T09:09:01.045Z,0
2019-03-16T09:10:01.616Z,0
2019-03-16T09:11:02.188Z,0
2019-03-16T09:12:02.813Z,0
2019-03-16T09:13:03.382Z,0
2019-03-16T09:14:04.006Z,0
2019-03-16T09:15:04.628Z,0
2019-03-16T09:16:05.202Z,0
2019-03-16T09:17:08.753Z,0
2019-03-16T09:18:06.437Z,0
2019-03-16T09:19:07.011Z,0
2019-03-16T09:20:07.582Z,0
2019-03-16T09:21:08.160Z,0
2019-03-16T09:22:08.731Z,0
2019-03-16T09:23:09.305Z,0
2019-03-16T09:24:09.875Z,0
2019-03-16T09:25:10.451Z,0
2019-03-16T09:26:11.074Z,0
2019-03-16T09:27:11.661Z,0
2019-03-16T09:28:18.489Z,0
2019-03-16T09:29:15.130Z,0
2019-03-16T09:30:15.414Z,0
2019-03-16T09:31:15.986Z,0
2019-03-16T09:32:16.611Z,0
2019-03-16T09:33:17.310Z,0
2019-03-16T09:34:17.868Z,0
2019-03-16T09:35:18.442Z,0
2019-03-16T09:36:19.067Z,0
2019-03-16T09:37:19.638Z,0
2019-03-16T09:38:20.261Z,0
2019-03-16T09:39:20.834Z,0
2019-03-16T09:40:21.409Z,0
2019-03-16T09:41:22.030Z,0
2019-03-16T09:42:22.653Z,0
2019-03-16T09:43:23.299Z,0
2019-03-16T09:44:23.834Z,0
2019-03-16T09:45:24.450Z,0
2019-03-16T09:46:25.019Z,0
2019-03-16T09:47:25.600Z,0
2019-03-16T09:48:26.171Z,0
2019-03-16T09:49:26.832Z,0
2019-03-16T09:50:27.459Z,0
2019-03-16T09:51:28.076Z,0
2019-03-16T09:52:28.648Z,0
2019-03-16T09:53:29.220Z,0
2019-03-16T09:54:29.794Z,0
2019-03-16T09:55:30.434Z,0
2019-03-16T09:56:31.011Z,0
2019-03-16T09:57:31.783Z,0
2019-03-16T09:58:32.355Z,0
2019-03-16T09:59:32.926Z,0
2019-03-16T10:00:33.498Z,0
2019-03-16T10:01:34.070Z,0
2019-03-16T10:02:34.642Z,0
2019-03-16T10:03:35.215Z,0
2019-03-16T10:04:35.787Z,0
2019-03-16T10:05:36.410Z,0
2019-03-16T10:06:37.036Z,0
2019-03-16T10:07:37.614Z,150
2019-03-16T10:08:38.190Z,115
2019-03-16T10:09:38.821Z,110
2019-03-16T10:10:39.397Z,105
2019-03-16T10:11:40.075Z,100
2019-03-16T10:12:40.654Z,105
2019-03-16T10:13:41.233Z,125
2019-03-16T10:14:41.810Z,125
2019-03-16T10:15:42.389Z,125
2019-03-16T10:16:42.968Z,125
2019-03-16T10:17:43.548Z,130
2019-03-16T10:18:44.173Z,135
2019-03-16T10:19:44.756Z,140
2019-03-16T10:20:45.332Z,130
2019-03-16T10:21:45.966Z,130
2019-03-16T10:22:46.540Z,125
2019-03-16T10:23:47.119Z,135
2019-03-16T10:24:47.696Z,135
2019-03-16T10:25:48.281Z,140
2019-03-16T10:26:48.906Z,155
2019-03-16T10:27:49.514Z,155
2019-03-16T10:28:50.140Z,155
2019-03-16T10:29:50.719Z,185
2019-03-16T10:30:51.296Z,175
2019-03-16T10:31:51.877Z,165
2019-03-16T10:32:52.507Z,205
2019-03-16T10:33:53.136Z,215
2019-03-16T10:34:53.719Z,185
2019-03-16T10:35:54.341Z,150
2019-03-16T10:36:54.971Z,125
2019-03-16T10:37:55.552Z,145
2019-03-16T10:38:56.131Z,200
2019-03-16T10:39:56.709Z,140
2019-03-16T10:40:57.289Z,190
2019-03-16T10:41:57.867Z,185
2019-03-16T10:42:58.447Z,200
2019-03-16T10:43:59.028Z,205
2019-03-16T10:44:59.660Z,185
2019-03-16T10:46:00.289Z,230
2019-03-16T10:47:00.871Z,230
2019-03-16T10:48:01.602Z,235
2019-03-16T10:49:02.182Z,185
2019-03-16T10:50:02.761Z,190
2019-03-16T10:51:03.341Z,195
2019-03-16T10:52:03.924Z,230
2019-03-16T10:53:04.547Z,270
2019-03-16T10:54:05.464Z,280
2019-03-16T10:55:06.014Z,230
2019-03-16T10:56:06.598Z,270
2019-03-16T10:57:07.229Z,250
2019-03-16T10:58:07.810Z,225
2019-03-16T10:59:08.392Z,235
2019-03-16T11:00:09.030Z,290
2019-03-16T11:01:09.656Z,295
2019-03-16T11:02:10.323Z,260
2019-03-16T11:03:10.906Z,210
2019-03-16T11:04:11.488Z,305
2019-03-16T11:05:12.071Z,290
2019-03-16T11:06:12.663Z,560
2019-03-16T11:07:13.282Z,1170
2019-03-16T11:08:13.866Z,1410
2019-03-16T11:09:14.454Z,1405
2019-03-16T11:10:15.127Z,1435
2019-03-16T11:11:15.711Z,1485
2019-03-16T11:12:16.298Z,1470
2019-03-16T11:13:16.880Z,880
2019-03-16T11:14:17.515Z,785
2019-03-16T11:15:18.100Z,1420
2019-03-16T11:16:18.685Z,1525
2019-03-16T11:17:19.322Z,1590
2019-03-16T11:19:35.491Z,985
2019-03-16T11:21:37.652Z,1560
2019-03-16T11:22:52.002Z,1480
2019-03-16T11:24:54.219Z,1415
2019-03-16T11:26:16.573Z,1480
2019-03-16T11:27:34.924Z,1475
2019-03-16T11:30:33.260Z,1440
2019-03-16T11:35:37.108Z,415
2019-03-16T11:36:37.867Z,405
2019-03-16T11:37:38.439Z,405
2019-03-16T11:38:39.088Z,400
2019-03-16T11:39:39.762Z,400
2019-03-16T11:40:40.403Z,400
2019-03-16T11:41:40.994Z,400
2019-03-16T11:42:41.585Z,395
2019-03-16T11:43:42.175Z,395
2019-03-16T11:44:42.770Z,400
2019-03-16T11:45:43.402Z,400
2019-03-16T11:48:23.220Z,395
2019-03-16T11:49:23.811Z,395
2019-03-16T11:50:24.404Z,395
2019-03-16T11:52:26.624Z,395
2019-03-16T11:54:28.849Z,395
2019-03-16T11:55:29.493Z,400
2019-03-16T11:56:30.138Z,395
2019-03-16T11:57:30.795Z,390
2019-03-16T11:58:31.460Z,390
2019-03-16T11:59:32.105Z,390
2019-03-16T12:00:32.697Z,375
2019-03-16T12:05:39.689Z,245
2019-03-16T12:06:40.281Z,235
2019-03-16T12:07:40.869Z,235
2019-03-16T12:08:41.460Z,230
2019-03-16T12:09:42.050Z,235
2019-03-16T12:10:42.640Z,235
2019-03-16T12:11:43.232Z,235
2019-03-16T12:12:43.872Z,235
2019-03-16T12:13:44.512Z,245
2019-03-16T12:14:45.150Z,250
2019-03-16T12:15:45.740Z,255
2019-03-16T12:16:46.376Z,275
2019-03-16T12:17:47.116Z,430
2019-03-16T12:18:47.705Z,1295
2019-03-16T12:19:48.345Z,1800
2019-03-16T12:20:48.987Z,1865
2019-03-16T12:21:49.578Z,1770
2019-03-16T12:22:50.167Z,1835
2019-03-16T12:23:50.808Z,1850
2019-03-16T12:24:51.441Z,1810
2019-03-16T12:25:52.094Z,1840
2019-03-16T12:26:52.686Z,1170
2019-03-16T12:27:53.282Z,345
2019-03-16T12:28:54.068Z,290
2019-03-16T12:29:54.660Z,270
2019-03-16T12:30:55.300Z,260
2019-03-16T12:31:55.940Z,250
2019-03-16T12:32:56.679Z,240
2019-03-16T12:33:57.273Z,235
2019-03-16T12:34:57.898Z,225
2019-03-16T12:35:58.486Z,220
2019-03-16T12:38:00.738Z,210
2019-03-16T12:39:01.319Z,200
2019-03-16T12:40:01.899Z,195
2019-03-16T12:41:02.532Z,190
2019-03-16T12:42:03.417Z,190
2019-03-16T12:43:17.803Z,185
2019-03-16T12:45:00.492Z,175
2019-03-16T12:47:31.081Z,165
2019-03-16T12:48:29.911Z,160
2019-03-16T12:49:53.620Z,160
2019-03-16T12:53:01.454Z,150
2019-03-16T12:54:05.066Z,145
2019-03-16T12:55:05.644Z,145
2019-03-16T12:56:06.233Z,140
2019-03-16T12:57:06.869Z,135
2019-03-16T12:58:07.507Z,135
2019-03-16T13:00:09.755Z,130
2019-03-16T13:01:53.887Z,125
2019-03-16T13:03:56.095Z,125
2019-03-16T13:05:10.437Z,125
2019-03-16T13:06:11.028Z,125
2019-03-16T13:08:13.226Z,125
2019-03-16T13:10:15.381Z,150
2019-03-16T13:11:16.958Z,160
2019-03-16T13:14:20.728Z,350
2019-03-16T13:15:21.305Z,1270
2019-03-16T13:16:21.887Z,1720
2019-03-16T13:17:22.463Z,1650
2019-03-16T13:18:23.195Z,1640
2019-03-16T13:19:23.823Z,1650
2019-03-16T13:20:24.461Z,1720
2019-03-16T13:21:25.100Z,1710
2019-03-16T13:24:28.838Z,1810
2019-03-16T13:25:29.520Z,1630
2019-03-16T13:26:30.102Z,1565
2019-03-16T13:27:30.693Z,1590
2019-03-16T13:28:45.039Z,1630
2019-03-16T13:29:45.636Z,1690
2019-03-16T13:32:01.706Z,1590
2019-03-16T13:33:02.299Z,1605
2019-03-16T13:34:02.896Z,1575
2019-03-16T13:35:03.535Z,1530
2019-03-16T13:38:44.673Z,1675
2019-03-16T13:40:46.891Z,1645
2019-03-16T13:42:01.255Z,1560
2019-03-16T13:43:01.848Z,1505
2019-03-16T13:44:02.491Z,1595
2019-03-16T13:45:03.086Z,1615
2019-03-16T13:47:04.136Z,1460
2019-03-16T13:48:04.734Z,1490
2019-03-16T13:50:06.917Z,1500
2019-03-16T13:51:07.628Z,1460
2019-03-16T13:52:08.220Z,1440
2019-03-16T13:53:09.099Z,1465
2019-03-16T13:54:09.691Z,1535
2019-03-16T13:55:10.287Z,1515
2019-03-16T13:56:10.889Z,1465
2019-03-16T13:57:11.655Z,1445
2019-03-16T13:58:12.253Z,1465
2019-03-16T13:59:12.851Z,1500
2019-03-16T14:01:15.219Z,1490
2019-03-16T14:02:15.820Z,1470
2019-03-16T14:03:16.681Z,1470
2019-03-16T14:04:17.331Z,1500
2019-03-16T14:05:17.925Z,1525
2019-03-16T14:06:18.524Z,1465
2019-03-16T14:07:19.162Z,1405
2019-03-16T14:08:19.838Z,1410
2019-03-16T14:09:20.430Z,1350
2019-03-16T14:10:21.166Z,1355
2019-03-16T14:11:21.764Z,1345
2019-03-16T14:12:22.362Z,1360
2019-03-16T14:13:23.249Z,1300
2019-03-16T14:14:23.894Z,1245
2019-03-16T14:15:24.546Z,1265
2019-03-16T14:16:25.192Z,1230
2019-03-16T14:17:25.987Z,1235
2019-03-16T14:18:26.609Z,1275
2019-03-16T14:19:27.207Z,1325
2019-03-16T14:20:27.805Z,1330
2019-03-16T14:21:28.599Z,1285
2019-03-16T14:22:29.196Z,1245
2019-03-16T14:23:29.792Z,1280
2019-03-16T14:24:30.389Z,1250
2019-03-16T14:25:31.177Z,1280
2019-03-16T14:26:31.821Z,1360
2019-03-16T14:27:32.468Z,1415
2019-03-16T14:28:33.067Z,1255
2019-03-16T14:29:33.923Z,1685
2019-03-16T14:30:41.004Z,1430
2019-03-16T14:31:36.182Z,1730
2019-03-16T14:32:36.757Z,1655
2019-03-16T14:33:37.404Z,1675
2019-03-16T14:34:38.281Z,1560
2019-03-16T14:35:38.929Z,1565
2019-03-16T14:36:39.526Z,1630
2019-03-16T14:37:40.124Z,1710
2019-03-16T14:38:40.863Z,1635
2019-03-16T14:39:41.539Z,1585
2019-03-16T14:40:42.257Z,1455
2019-03-16T14:41:42.852Z,1060
2019-03-16T14:42:43.447Z,285
2019-03-16T14:43:44.044Z,1155
2019-03-16T14:44:44.640Z,1360
2019-03-16T14:45:45.286Z,1240
2019-03-16T14:46:45.931Z,310
2019-03-16T14:47:46.526Z,320
2019-03-16T14:48:47.170Z,240
2019-03-16T14:49:47.764Z,240
2019-03-16T14:50:48.357Z,205
2019-03-16T14:51:48.951Z,250
2019-03-16T14:52:49.551Z,380
2019-03-16T14:53:50.189Z,815
2019-03-16T14:54:50.833Z,820
2019-03-16T14:55:51.477Z,1110
2019-03-16T14:56:52.069Z,1160
2019-03-16T14:57:52.661Z,235
2019-03-16T14:58:53.257Z,240
2019-03-16T14:59:53.867Z,1120
2019-03-16T15:00:54.485Z,575
2019-03-16T15:01:55.126Z,565
2019-03-16T15:02:55.718Z,265
2019-03-16T15:03:56.309Z,435
2019-03-16T15:04:56.903Z,1060
2019-03-16T15:05:57.497Z,990
2019-03-16T15:06:58.131Z,300
2019-03-16T15:09:00.356Z,295
2019-03-16T15:10:00.949Z,465
2019-03-16T15:11:01.590Z,255
2019-03-16T15:12:02.179Z,235
2019-03-16T15:13:02.844Z,230
2019-03-16T15:15:05.041Z,875
2019-03-16T15:16:05.624Z,865